sensor_id;sensor_type;location;lat;lon;timestamp;pressure;altitude;pressure_sealevel;temperature;humidity
61805;BME280;47725;47.912;7.356;2023-07-31T00:03:05;99400.34;;;21.44;45.14
61805;BME280;47725;47.912;7.356;2023-07-31T00:07:05;99399.08;;;21.39;45.22
61805;BME280;47725;47.912;7.356;2023-07-31T00:11:05;99398.44;;;21.35;45.43
61805;BME280;47725;47.912;7.356;2023-07-31T00:15:06;99397.91;;;21.29;45.98
61805;BME280;47725;47.912;7.356;2023-07-31T00:19:05;99397.67;;;21.24;45.98
61805;BME280;47725;47.912;7.356;2023-07-31T00:23:05;99397.23;;;21.19;46.33
61805;BME280;47725;47.912;7.356;2023-07-31T00:27:05;99397.34;;;21.13;46.93
61805;BME280;47725;47.912;7.356;2023-07-31T00:31:05;99397.22;;;21.05;47.47
61805;BME280;47725;47.912;7.356;2023-07-31T00:35:05;99397.17;;;20.98;47.51
61805;BME280;47725;47.912;7.356;2023-07-31T00:39:05;99397.60;;;20.89;47.64
61805;BME280;47725;47.912;7.356;2023-07-31T00:43:05;99398.03;;;20.82;48.78
61805;BME280;47725;47.912;7.356;2023-07-31T00:47:05;99396.88;;;20.75;47.98
61805;BME280;47725;47.912;7.356;2023-07-31T00:51:06;99395.11;;;20.70;47.98
61805;BME280;47725;47.912;7.356;2023-07-31T00:55:05;99392.38;;;20.66;48.00
61805;BME280;47725;47.912;7.356;2023-07-31T00:59:05;99389.64;;;20.62;48.46
61805;BME280;47725;47.912;7.356;2023-07-31T01:03:05;99386.81;;;20.58;48.53
61805;BME280;47725;47.912;7.356;2023-07-31T01:07:13;99383.80;;;20.54;48.37
61805;BME280;47725;47.912;7.356;2023-07-31T01:11:14;99381.87;;;20.52;48.29
61805;BME280;47725;47.912;7.356;2023-07-31T01:15:05;99379.41;;;20.49;48.58
61805;BME280;47725;47.912;7.356;2023-07-31T01:19:05;99376.46;;;20.45;48.57
61805;BME280;47725;47.912;7.356;2023-07-31T01:23:14;99372.28;;;20.41;48.86
61805;BME280;47725;47.912;7.356;2023-07-31T01:27:23;99368.37;;;20.36;49.50
61805;BME280;47725;47.912;7.356;2023-07-31T01:31:05;99364.65;;;20.32;49.35
61805;BME280;47725;47.912;7.356;2023-07-31T01:35:05;99361.24;;;20.28;48.78
61805;BME280;47725;47.912;7.356;2023-07-31T01:39:05;99359.23;;;20.26;48.98
61805;BME280;47725;47.912;7.356;2023-07-31T01:43:05;99355.45;;;20.23;49.17
61805;BME280;47725;47.912;7.356;2023-07-31T01:47:05;99351.59;;;20.21;49.02
61805;BME280;47725;47.912;7.356;2023-07-31T01:51:05;99348.22;;;20.19;48.86
61805;BME280;47725;47.912;7.356;2023-07-31T01:55:05;99346.04;;;20.18;48.94
61805;BME280;47725;47.912;7.356;2023-07-31T01:59:05;99343.73;;;20.16;49.11
61805;BME280;47725;47.912;7.356;2023-07-31T02:03:05;99340.85;;;20.13;49.51
61805;BME280;47725;47.912;7.356;2023-07-31T02:07:05;99337.66;;;20.08;49.50
61805;BME280;47725;47.912;7.356;2023-07-31T02:11:05;99335.44;;;20.05;49.46
61805;BME280;47725;47.912;7.356;2023-07-31T02:15:05;99331.13;;;20.01;49.68
61805;BME280;47725;47.912;7.356;2023-07-31T02:19:05;99327.77;;;19.97;49.71
61805;BME280;47725;47.912;7.356;2023-07-31T02:23:05;99323.71;;;19.93;49.89
61805;BME280;47725;47.912;7.356;2023-07-31T02:27:05;99318.22;;;19.89;49.88
61805;BME280;47725;47.912;7.356;2023-07-31T02:31:05;99313.34;;;19.86;50.17
61805;BME280;47725;47.912;7.356;2023-07-31T02:35:05;99311.61;;;19.83;50.07
61805;BME280;47725;47.912;7.356;2023-07-31T02:39:05;99312.03;;;19.80;50.09
61805;BME280;47725;47.912;7.356;2023-07-31T02:43:05;99313.00;;;19.78;49.94
61805;BME280;47725;47.912;7.356;2023-07-31T02:47:05;99315.59;;;19.77;49.83
61805;BME280;47725;47.912;7.356;2023-07-31T02:51:05;99318.67;;;19.77;49.76
61805;BME280;47725;47.912;7.356;2023-07-31T02:55:05;99318.86;;;19.76;50.08
61805;BME280;47725;47.912;7.356;2023-07-31T02:59:05;99318.36;;;19.74;50.02
61805;BME280;47725;47.912;7.356;2023-07-31T03:03:05;99316.04;;;19.72;50.07
61805;BME280;47725;47.912;7.356;2023-07-31T03:07:05;99312.59;;;19.70;50.16
61805;BME280;47725;47.912;7.356;2023-07-31T03:11:05;99311.17;;;19.68;50.15
61805;BME280;47725;47.912;7.356;2023-07-31T03:15:05;99310.30;;;19.65;50.32
61805;BME280;47725;47.912;7.356;2023-07-31T03:19:05;99310.44;;;19.63;50.58
61805;BME280;47725;47.912;7.356;2023-07-31T03:23:05;99308.18;;;19.61;50.36
61805;BME280;47725;47.912;7.356;2023-07-31T03:27:05;99307.11;;;19.59;50.45
61805;BME280;47725;47.912;7.356;2023-07-31T03:31:05;99306.98;;;19.57;51.07
61805;BME280;47725;47.912;7.356;2023-07-31T03:35:05;99306.13;;;19.53;51.00
61805;BME280;47725;47.912;7.356;2023-07-31T03:39:05;99306.80;;;19.47;51.71
61805;BME280;47725;47.912;7.356;2023-07-31T03:43:05;99308.60;;;19.41;51.98
61805;BME280;47725;47.912;7.356;2023-07-31T03:47:05;99310.66;;;19.37;51.78
61805;BME280;47725;47.912;7.356;2023-07-31T03:51:05;99311.31;;;19.32;51.77
61805;BME280;47725;47.912;7.356;2023-07-31T03:55:05;99313.26;;;19.29;51.77
61805;BME280;47725;47.912;7.356;2023-07-31T03:59:05;99311.78;;;19.26;51.89
61805;BME280;47725;47.912;7.356;2023-07-31T04:03:05;99308.67;;;19.20;52.62
61805;BME280;47725;47.912;7.356;2023-07-31T04:07:05;99308.37;;;19.15;52.69
61805;BME280;47725;47.912;7.356;2023-07-31T04:11:05;99309.53;;;19.10;52.83
61805;BME280;47725;47.912;7.356;2023-07-31T04:15:05;99311.69;;;19.07;52.88
61805;BME280;47725;47.912;7.356;2023-07-31T04:19:05;99315.42;;;19.04;53.03
61805;BME280;47725;47.912;7.356;2023-07-31T04:23:05;99317.41;;;19.02;53.08
61805;BME280;47725;47.912;7.356;2023-07-31T04:27:05;99320.61;;;19.02;52.81
61805;BME280;47725;47.912;7.356;2023-07-31T04:31:05;99322.03;;;19.04;52.66
61805;BME280;47725;47.912;7.356;2023-07-31T04:35:05;99321.38;;;19.06;52.72
61805;BME280;47725;47.912;7.356;2023-07-31T04:39:05;99321.71;;;19.06;53.21
61805;BME280;47725;47.912;7.356;2023-07-31T04:43:05;99320.73;;;19.05;52.99
61805;BME280;47725;47.912;7.356;2023-07-31T04:47:05;99321.46;;;19.05;53.13
61805;BME280;47725;47.912;7.356;2023-07-31T04:51:05;99321.28;;;19.04;53.39
61805;BME280;47725;47.912;7.356;2023-07-31T04:55:05;99321.79;;;19.05;53.10
61805;BME280;47725;47.912;7.356;2023-07-31T04:59:05;99323.85;;;19.06;53.14
61805;BME280;47725;47.912;7.356;2023-07-31T05:03:05;99325.58;;;19.09;52.91
61805;BME280;47725;47.912;7.356;2023-07-31T05:07:05;99326.92;;;19.12;52.71
61805;BME280;47725;47.912;7.356;2023-07-31T05:11:05;99329.32;;;19.17;52.75
61805;BME280;47725;47.912;7.356;2023-07-31T05:15:05;99328.77;;;19.20;52.61
61805;BME280;47725;47.912;7.356;2023-07-31T05:19:05;99326.59;;;19.24;52.73
61805;BME280;47725;47.912;7.356;2023-07-31T05:23:05;99323.35;;;19.24;53.10
61805;BME280;47725;47.912;7.356;2023-07-31T05:27:05;99323.49;;;19.23;53.38
61805;BME280;47725;47.912;7.356;2023-07-31T05:31:05;99324.80;;;19.21;53.70
61805;BME280;47725;47.912;7.356;2023-07-31T05:35:05;99327.58;;;19.21;53.42
61805;BME280;47725;47.912;7.356;2023-07-31T05:39:05;99328.40;;;19.21;53.63
61805;BME280;47725;47.912;7.356;2023-07-31T05:43:05;99328.85;;;19.23;53.26
61805;BME280;47725;47.912;7.356;2023-07-31T05:47:05;99328.94;;;19.28;53.27
61805;BME280;47725;47.912;7.356;2023-07-31T05:51:05;99329.18;;;19.32;53.35
61805;BME280;47725;47.912;7.356;2023-07-31T05:55:05;99327.89;;;19.36;53.29
61805;BME280;47725;47.912;7.356;2023-07-31T05:59:05;99325.49;;;19.43;52.83
61805;BME280;47725;47.912;7.356;2023-07-31T06:03:05;99323.05;;;19.54;52.50
61805;BME280;47725;47.912;7.356;2023-07-31T06:07:05;99320.57;;;19.68;52.21
61805;BME280;47725;47.912;7.356;2023-07-31T06:11:05;99316.66;;;19.82;51.96
61805;BME280;47725;47.912;7.356;2023-07-31T06:15:05;99309.80;;;19.96;51.82
61805;BME280;47725;47.912;7.356;2023-07-31T06:19:05;99300.76;;;20.10;51.46
61805;BME280;47725;47.912;7.356;2023-07-31T06:23:05;99292.85;;;20.21;51.78
61805;BME280;47725;47.912;7.356;2023-07-31T06:27:05;99285.29;;;20.32;51.77
61805;BME280;47725;47.912;7.356;2023-07-31T06:31:05;99280.92;;;20.42;51.69
61805;BME280;47725;47.912;7.356;2023-07-31T06:35:05;99280.66;;;20.50;51.39
61805;BME280;47725;47.912;7.356;2023-07-31T06:39:05;99281.53;;;20.58;51.17
61805;BME280;47725;47.912;7.356;2023-07-31T06:43:05;99285.49;;;20.67;50.71
61805;BME280;47725;47.912;7.356;2023-07-31T06:47:05;99290.31;;;20.76;50.63
61805;BME280;47725;47.912;7.356;2023-07-31T06:51:05;99293.55;;;20.85;50.45
61805;BME280;47725;47.912;7.356;2023-07-31T06:55:17;99295.34;;;20.91;49.96
61805;BME280;47725;47.912;7.356;2023-07-31T06:59:05;99296.08;;;20.94;49.90
61805;BME280;47725;47.912;7.356;2023-07-31T07:03:05;99295.00;;;20.97;50.19
61805;BME280;47725;47.912;7.356;2023-07-31T07:07:05;99293.20;;;21.03;49.97
61805;BME280;47725;47.912;7.356;2023-07-31T07:11:05;99289.36;;;21.08;49.67
61805;BME280;47725;47.912;7.356;2023-07-31T07:15:05;99284.16;;;21.12;49.32
61805;BME280;47725;47.912;7.356;2023-07-31T07:19:05;99277.86;;;21.14;49.07
61805;BME280;47725;47.912;7.356;2023-07-31T07:23:05;99271.69;;;21.13;49.29
61805;BME280;47725;47.912;7.356;2023-07-31T07:27:05;99266.05;;;21.14;49.30
61805;BME280;47725;47.912;7.356;2023-07-31T07:31:05;99263.57;;;21.16;48.93
61805;BME280;47725;47.912;7.356;2023-07-31T07:35:05;99262.13;;;21.20;48.90
61805;BME280;47725;47.912;7.356;2023-07-31T07:39:05;99261.47;;;21.27;48.73
61805;BME280;47725;47.912;7.356;2023-07-31T07:43:07;99262.67;;;21.35;48.36
61805;BME280;47725;47.912;7.356;2023-07-31T07:47:05;99263.45;;;21.41;48.39
61805;BME280;47725;47.912;7.356;2023-07-31T07:51:05;99264.34;;;21.48;48.15
61805;BME280;47725;47.912;7.356;2023-07-31T07:55:05;99265.77;;;21.57;48.02
61805;BME280;47725;47.912;7.356;2023-07-31T07:59:05;99266.53;;;21.67;47.80
61805;BME280;47725;47.912;7.356;2023-07-31T08:03:05;99265.08;;;21.76;47.57
61805;BME280;47725;47.912;7.356;2023-07-31T08:07:05;99266.92;;;21.85;46.88
61805;BME280;47725;47.912;7.356;2023-07-31T08:11:05;99269.08;;;21.92;46.91
61805;BME280;47725;47.912;7.356;2023-07-31T08:15:05;99268.61;;;22.01;46.24
61805;BME280;47725;47.912;7.356;2023-07-31T08:19:05;99267.13;;;22.06;46.36
61805;BME280;47725;47.912;7.356;2023-07-31T08:23:05;99265.59;;;22.13;46.13
61805;BME280;47725;47.912;7.356;2023-07-31T08:27:05;99264.90;;;22.20;45.90
61805;BME280;47725;47.912;7.356;2023-07-31T08:31:04;99262.77;;;22.26;45.56
61805;BME280;47725;47.912;7.356;2023-07-31T08:35:05;99258.37;;;22.31;45.70
61805;BME280;47725;47.912;7.356;2023-07-31T08:39:04;99255.07;;;22.37;45.44
61805;BME280;47725;47.912;7.356;2023-07-31T08:43:05;99250.51;;;22.43;45.57
61805;BME280;47725;47.912;7.356;2023-07-31T08:47:05;99244.81;;;22.52;45.78
61805;BME280;47725;47.912;7.356;2023-07-31T08:51:04;99239.25;;;22.63;45.11
61805;BME280;47725;47.912;7.356;2023-07-31T08:55:05;99235.27;;;22.71;44.97
61805;BME280;47725;47.912;7.356;2023-07-31T08:59:04;99230.55;;;22.77;45.02
61805;BME280;47725;47.912;7.356;2023-07-31T09:03:14;99225.37;;;22.84;45.17
61805;BME280;47725;47.912;7.356;2023-07-31T09:07:05;99218.09;;;22.91;44.84
61805;BME280;47725;47.912;7.356;2023-07-31T09:11:04;99212.62;;;22.95;44.50
61805;BME280;47725;47.912;7.356;2023-07-31T09:15:05;99210.43;;;22.98;44.43
61805;BME280;47725;47.912;7.356;2023-07-31T09:19:04;99206.77;;;23.01;44.59
61805;BME280;47725;47.912;7.356;2023-07-31T09:23:05;99202.63;;;23.05;44.70
61805;BME280;47725;47.912;7.356;2023-07-31T09:27:05;99197.03;;;23.09;44.50
61805;BME280;47725;47.912;7.356;2023-07-31T09:31:04;99192.83;;;23.14;44.46
61805;BME280;47725;47.912;7.356;2023-07-31T09:35:18;99188.83;;;23.20;43.80
61805;BME280;47725;47.912;7.356;2023-07-31T09:39:04;99183.97;;;23.23;43.68
61805;BME280;47725;47.912;7.356;2023-07-31T09:43:05;99177.58;;;23.30;43.73
61805;BME280;47725;47.912;7.356;2023-07-31T09:47:05;99167.41;;;23.42;42.83
61805;BME280;47725;47.912;7.356;2023-07-31T09:51:04;99161.61;;;23.56;42.15
61805;BME280;47725;47.912;7.356;2023-07-31T09:55:05;99156.73;;;23.73;41.47
61805;BME280;47725;47.912;7.356;2023-07-31T09:59:04;99150.54;;;23.94;41.51
61805;BME280;47725;47.912;7.356;2023-07-31T10:03:06;99144.81;;;24.19;40.21
61805;BME280;47725;47.912;7.356;2023-07-31T10:07:05;99138.50;;;24.42;39.57
61805;BME280;47725;47.912;7.356;2023-07-31T10:11:04;99132.44;;;24.61;38.89
61805;BME280;47725;47.912;7.356;2023-07-31T10:15:05;99126.31;;;24.79;38.99
61805;BME280;47725;47.912;7.356;2023-07-31T10:19:05;99122.16;;;24.93;39.49
61805;BME280;47725;47.912;7.356;2023-07-31T10:23:04;99118.44;;;25.02;38.41
61805;BME280;47725;47.912;7.356;2023-07-31T10:27:05;99114.08;;;25.09;39.23
61805;BME280;47725;47.912;7.356;2023-07-31T10:31:04;99109.44;;;25.16;39.18
61805;BME280;47725;47.912;7.356;2023-07-31T10:35:05;99105.95;;;25.22;38.44
61805;BME280;47725;47.912;7.356;2023-07-31T10:39:04;99103.85;;;25.24;39.23
61805;BME280;47725;47.912;7.356;2023-07-31T10:43:04;99103.30;;;25.24;38.88
61805;BME280;47725;47.912;7.356;2023-07-31T10:47:04;99101.51;;;25.24;38.79
61805;BME280;47725;47.912;7.356;2023-07-31T10:51:06;99097.81;;;25.22;39.58
61805;BME280;47725;47.912;7.356;2023-07-31T10:59:04;99093.28;;;25.21;39.62
61805;BME280;47725;47.912;7.356;2023-07-31T11:03:12;99092.11;;;25.21;40.08
61805;BME280;47725;47.912;7.356;2023-07-31T11:07:04;99089.67;;;25.23;39.77
61805;BME280;47725;47.912;7.356;2023-07-31T11:11:05;99088.17;;;25.25;39.12
61805;BME280;47725;47.912;7.356;2023-07-31T11:15:05;99086.13;;;25.27;39.41
61805;BME280;47725;47.912;7.356;2023-07-31T11:19:04;99085.13;;;25.31;39.08
61805;BME280;47725;47.912;7.356;2023-07-31T11:23:08;99081.92;;;25.36;38.85
61805;BME280;47725;47.912;7.356;2023-07-31T11:27:07;99078.14;;;25.38;38.19
61805;BME280;47725;47.912;7.356;2023-07-31T11:31:04;99072.57;;;25.37;38.71
61805;BME280;47725;47.912;7.356;2023-07-31T11:35:05;99069.70;;;25.41;38.57
61805;BME280;47725;47.912;7.356;2023-07-31T11:39:05;99065.12;;;25.48;38.79
61805;BME280;47725;47.912;7.356;2023-07-31T11:43:04;99058.67;;;25.56;38.55
61805;BME280;47725;47.912;7.356;2023-07-31T11:47:05;99053.59;;;25.66;38.28
61805;BME280;47725;47.912;7.356;2023-07-31T11:51:05;99048.71;;;25.73;38.05
61805;BME280;47725;47.912;7.356;2023-07-31T11:55:05;99043.73;;;25.80;37.97
61805;BME280;47725;47.912;7.356;2023-07-31T11:59:04;99036.61;;;25.86;37.91
61805;BME280;47725;47.912;7.356;2023-07-31T12:03:04;99029.52;;;25.91;37.89
61805;BME280;47725;47.912;7.356;2023-07-31T12:07:05;99022.80;;;25.96;37.71
61805;BME280;47725;47.912;7.356;2023-07-31T12:11:05;99017.52;;;25.97;37.53
61805;BME280;47725;47.912;7.356;2023-07-31T12:15:12;99012.72;;;25.98;38.10
61805;BME280;47725;47.912;7.356;2023-07-31T12:19:04;99009.91;;;26.02;38.07
61805;BME280;47725;47.912;7.356;2023-07-31T12:23:04;99005.39;;;26.08;37.44
61805;BME280;47725;47.912;7.356;2023-07-31T12:27:11;98999.30;;;26.12;37.42
61805;BME280;47725;47.912;7.356;2023-07-31T12:31:04;98993.21;;;26.15;37.27
61805;BME280;47725;47.912;7.356;2023-07-31T12:35:06;98988.06;;;26.19;37.49
61805;BME280;47725;47.912;7.356;2023-07-31T12:39:04;98982.90;;;26.27;37.36
61805;BME280;47725;47.912;7.356;2023-07-31T12:43:04;98978.56;;;26.37;36.58
61805;BME280;47725;47.912;7.356;2023-07-31T12:47:05;98971.86;;;26.44;37.25
61805;BME280;47725;47.912;7.356;2023-07-31T12:51:04;98966.36;;;26.51;36.40
61805;BME280;47725;47.912;7.356;2023-07-31T12:55:05;98962.53;;;26.56;36.35
61805;BME280;47725;47.912;7.356;2023-07-31T12:59:04;98957.76;;;26.60;36.56
61805;BME280;47725;47.912;7.356;2023-07-31T13:03:04;98953.14;;;26.65;36.69
61805;BME280;47725;47.912;7.356;2023-07-31T13:07:05;98945.65;;;26.72;36.87
61805;BME280;47725;47.912;7.356;2023-07-31T13:11:04;98937.77;;;26.80;36.90
61805;BME280;47725;47.912;7.356;2023-07-31T13:15:05;98928.92;;;26.87;36.73
61805;BME280;47725;47.912;7.356;2023-07-31T13:19:04;98921.25;;;26.96;36.87
61805;BME280;47725;47.912;7.356;2023-07-31T13:23:04;98914.54;;;27.04;36.33
61805;BME280;47725;47.912;7.356;2023-07-31T13:27:05;98907.37;;;27.09;36.06
61805;BME280;47725;47.912;7.356;2023-07-31T13:31:04;98901.95;;;27.14;35.59
61805;BME280;47725;47.912;7.356;2023-07-31T13:35:08;98895.67;;;27.16;35.70
61805;BME280;47725;47.912;7.356;2023-07-31T13:39:04;98890.02;;;27.18;35.81
61805;BME280;47725;47.912;7.356;2023-07-31T13:43:04;98884.69;;;27.22;35.28
61805;BME280;47725;47.912;7.356;2023-07-31T13:47:05;98879.85;;;27.27;35.60
61805;BME280;47725;47.912;7.356;2023-07-31T13:51:04;98877.08;;;27.34;35.08
61805;BME280;47725;47.912;7.356;2023-07-31T13:55:05;98875.08;;;27.41;34.67
61805;BME280;47725;47.912;7.356;2023-07-31T13:59:04;98870.90;;;27.45;35.06
61805;BME280;47725;47.912;7.356;2023-07-31T14:03:04;98866.77;;;27.53;35.09
61805;BME280;47725;47.912;7.356;2023-07-31T14:07:05;98862.06;;;27.62;34.83
61805;BME280;47725;47.912;7.356;2023-07-31T14:11:04;98860.50;;;27.70;34.65
61805;BME280;47725;47.912;7.356;2023-07-31T14:15:05;98859.28;;;27.74;34.41
61805;BME280;47725;47.912;7.356;2023-07-31T14:19:04;98858.26;;;27.78;34.85
61805;BME280;47725;47.912;7.356;2023-07-31T14:23:04;98856.10;;;27.83;34.67
61805;BME280;47725;47.912;7.356;2023-07-31T14:27:04;98854.55;;;27.87;35.00
61805;BME280;47725;47.912;7.356;2023-07-31T14:31:04;98853.85;;;27.91;35.39
61805;BME280;47725;47.912;7.356;2023-07-31T14:35:05;98851.83;;;27.94;34.84
61805;BME280;47725;47.912;7.356;2023-07-31T14:39:04;98849.03;;;27.97;35.05
61805;BME280;47725;47.912;7.356;2023-07-31T14:43:04;98845.11;;;28.02;35.15
61805;BME280;47725;47.912;7.356;2023-07-31T14:47:05;98839.90;;;28.09;35.29
61805;BME280;47725;47.912;7.356;2023-07-31T14:51:04;98836.58;;;28.16;35.33
61805;BME280;47725;47.912;7.356;2023-07-31T14:55:05;98834.05;;;28.22;35.40
61805;BME280;47725;47.912;7.356;2023-07-31T14:59:04;98830.91;;;28.25;35.05
61805;BME280;47725;47.912;7.356;2023-07-31T15:03:04;98828.79;;;28.21;34.99
61805;BME280;47725;47.912;7.356;2023-07-31T15:07:05;98825.73;;;28.16;35.43
61805;BME280;47725;47.912;7.356;2023-07-31T15:11:04;98822.89;;;28.11;35.55
61805;BME280;47725;47.912;7.356;2023-07-31T15:15:05;98820.19;;;28.07;35.51
61805;BME280;47725;47.912;7.356;2023-07-31T15:19:04;98817.88;;;28.03;35.42
61805;BME280;47725;47.912;7.356;2023-07-31T15:23:04;98814.29;;;27.96;35.98
61805;BME280;47725;47.912;7.356;2023-07-31T15:27:05;98810.58;;;27.88;36.38
61805;BME280;47725;47.912;7.356;2023-07-31T15:31:04;98808.94;;;27.78;36.82
61805;BME280;47725;47.912;7.356;2023-07-31T15:35:05;98807.09;;;27.70;37.04
61805;BME280;47725;47.912;7.356;2023-07-31T15:39:04;98804.55;;;27.60;36.92
61805;BME280;47725;47.912;7.356;2023-07-31T15:43:04;98803.94;;;27.53;37.23
61805;BME280;47725;47.912;7.356;2023-07-31T15:47:05;98804.58;;;27.45;37.14
61805;BME280;47725;47.912;7.356;2023-07-31T15:51:04;98804.38;;;27.38;37.07
61805;BME280;47725;47.912;7.356;2023-07-31T15:55:05;98803.28;;;27.32;37.21
61805;BME280;47725;47.912;7.356;2023-07-31T15:59:04;98801.90;;;27.29;37.21
61805;BME280;47725;47.912;7.356;2023-07-31T16:03:04;98800.80;;;27.28;37.17
61805;BME280;47725;47.912;7.356;2023-07-31T16:07:04;98798.95;;;27.28;37.08
61805;BME280;47725;47.912;7.356;2023-07-31T16:11:04;98796.20;;;27.29;37.00
61805;BME280;47725;47.912;7.356;2023-07-31T16:15:05;98792.30;;;27.30;37.08
61805;BME280;47725;47.912;7.356;2023-07-31T16:19:04;98788.14;;;27.30;37.17
61805;BME280;47725;47.912;7.356;2023-07-31T16:23:04;98783.29;;;27.31;37.25
61805;BME280;47725;47.912;7.356;2023-07-31T16:27:04;98777.03;;;27.33;37.12
61805;BME280;47725;47.912;7.356;2023-07-31T16:31:04;98770.99;;;27.36;37.38
61805;BME280;47725;47.912;7.356;2023-07-31T16:35:04;98763.00;;;27.38;37.37
61805;BME280;47725;47.912;7.356;2023-07-31T16:39:04;98756.45;;;27.41;37.19
61805;BME280;47725;47.912;7.356;2023-07-31T16:43:04;98751.78;;;27.42;37.26
61805;BME280;47725;47.912;7.356;2023-07-31T16:47:04;98748.86;;;27.41;37.08
61805;BME280;47725;47.912;7.356;2023-07-31T16:51:04;98744.73;;;27.38;37.23
61805;BME280;47725;47.912;7.356;2023-07-31T16:55:04;98740.23;;;27.37;37.36
61805;BME280;47725;47.912;7.356;2023-07-31T16:59:04;98734.98;;;27.37;37.18
61805;BME280;47725;47.912;7.356;2023-07-31T17:03:04;98730.59;;;27.35;37.43
61805;BME280;47725;47.912;7.356;2023-07-31T17:07:04;98728.49;;;27.33;37.38
61805;BME280;47725;47.912;7.356;2023-07-31T17:11:04;98726.10;;;27.31;37.48
61805;BME280;47725;47.912;7.356;2023-07-31T17:15:05;98723.91;;;27.30;37.55
61805;BME280;47725;47.912;7.356;2023-07-31T17:19:04;98722.53;;;27.27;38.05
61805;BME280;47725;47.912;7.356;2023-07-31T17:23:04;98722.38;;;27.23;38.24
61805;BME280;47725;47.912;7.356;2023-07-31T17:27:04;98723.07;;;27.18;38.34
61805;BME280;47725;47.912;7.356;2023-07-31T17:31:04;98722.97;;;27.12;38.38
61805;BME280;47725;47.912;7.356;2023-07-31T17:35:04;98722.39;;;27.06;38.28
61805;BME280;47725;47.912;7.356;2023-07-31T17:39:04;98722.50;;;27.00;38.41
61805;BME280;47725;47.912;7.356;2023-07-31T17:43:04;98722.37;;;26.97;38.25
61805;BME280;47725;47.912;7.356;2023-07-31T17:47:04;98720.42;;;26.96;38.10
61805;BME280;47725;47.912;7.356;2023-07-31T17:51:04;98716.36;;;26.97;37.96
61805;BME280;47725;47.912;7.356;2023-07-31T17:55:05;98712.11;;;26.98;37.85
61805;BME280;47725;47.912;7.356;2023-07-31T17:59:04;98709.38;;;26.99;37.97
61805;BME280;47725;47.912;7.356;2023-07-31T18:03:04;98706.72;;;26.99;37.85
61805;BME280;47725;47.912;7.356;2023-07-31T18:07:04;98704.36;;;26.98;37.88
61805;BME280;47725;47.912;7.356;2023-07-31T18:11:04;98703.78;;;26.97;37.84
61805;BME280;47725;47.912;7.356;2023-07-31T18:15:07;98701.92;;;26.96;37.82
61805;BME280;47725;47.912;7.356;2023-07-31T18:19:04;98700.06;;;26.94;37.91
61805;BME280;47725;47.912;7.356;2023-07-31T18:23:04;98697.60;;;26.91;37.91
61805;BME280;47725;47.912;7.356;2023-07-31T18:27:04;98692.38;;;26.88;37.95
61805;BME280;47725;47.912;7.356;2023-07-31T18:31:04;98686.61;;;26.88;37.93
61805;BME280;47725;47.912;7.356;2023-07-31T18:35:05;98684.38;;;26.88;37.94
61805;BME280;47725;47.912;7.356;2023-07-31T18:39:04;98683.04;;;26.88;37.99
61805;BME280;47725;47.912;7.356;2023-07-31T18:43:04;98683.18;;;26.87;38.07
61805;BME280;47725;47.912;7.356;2023-07-31T18:47:04;98680.28;;;26.87;38.21
61805;BME280;47725;47.912;7.356;2023-07-31T18:51:04;98672.67;;;26.85;38.57
61805;BME280;47725;47.912;7.356;2023-07-31T18:55:05;98664.78;;;26.83;38.72
61805;BME280;47725;47.912;7.356;2023-07-31T18:59:04;98655.98;;;26.80;39.04
61805;BME280;47725;47.912;7.356;2023-07-31T19:03:04;98650.45;;;26.76;39.05
61805;BME280;47725;47.912;7.356;2023-07-31T19:07:04;98644.73;;;26.73;39.17
61805;BME280;47725;47.912;7.356;2023-07-31T19:11:04;98641.61;;;26.70;39.43
61805;BME280;47725;47.912;7.356;2023-07-31T19:15:05;98640.98;;;26.66;39.47
61805;BME280;47725;47.912;7.356;2023-07-31T19:19:04;98640.48;;;26.63;39.71
61805;BME280;47725;47.912;7.356;2023-07-31T19:23:04;98638.01;;;26.60;39.69
61805;BME280;47725;47.912;7.356;2023-07-31T19:27:05;98632.89;;;26.57;39.82
61805;BME280;47725;47.912;7.356;2023-07-31T19:31:04;98631.48;;;26.53;40.20
61805;BME280;47725;47.912;7.356;2023-07-31T19:35:05;98630.33;;;26.49;40.56
61805;BME280;47725;47.912;7.356;2023-07-31T19:39:04;98630.92;;;26.44;40.53
61805;BME280;47725;47.912;7.356;2023-07-31T19:43:04;98630.63;;;26.40;40.67
61805;BME280;47725;47.912;7.356;2023-07-31T19:47:04;98630.22;;;26.36;40.60
61805;BME280;47725;47.912;7.356;2023-07-31T19:51:04;98629.00;;;26.33;40.80
61805;BME280;47725;47.912;7.356;2023-07-31T19:55:04;98626.62;;;26.30;40.84
61805;BME280;47725;47.912;7.356;2023-07-31T19:59:04;98624.58;;;26.27;40.99
61805;BME280;47725;47.912;7.356;2023-07-31T20:03:04;98622.58;;;26.23;41.17
61805;BME280;47725;47.912;7.356;2023-07-31T20:07:05;98620.37;;;26.19;41.24
61805;BME280;47725;47.912;7.356;2023-07-31T20:11:04;98617.99;;;26.16;41.46
61805;BME280;47725;47.912;7.356;2023-07-31T20:15:05;98613.19;;;26.13;41.60
61805;BME280;47725;47.912;7.356;2023-07-31T20:19:04;98607.73;;;26.09;41.59
61805;BME280;47725;47.912;7.356;2023-07-31T20:23:04;98604.68;;;26.07;41.61
61805;BME280;47725;47.912;7.356;2023-07-31T20:27:04;98601.96;;;26.04;41.65
61805;BME280;47725;47.912;7.356;2023-07-31T20:31:04;98598.69;;;26.02;41.88
61805;BME280;47725;47.912;7.356;2023-07-31T20:35:04;98593.81;;;25.99;42.01
61805;BME280;47725;47.912;7.356;2023-07-31T20:39:04;98589.87;;;25.95;42.31
61805;BME280;47725;47.912;7.356;2023-07-31T20:43:04;98587.91;;;25.91;42.28
61805;BME280;47725;47.912;7.356;2023-07-31T20:47:04;98587.08;;;25.87;42.28
61805;BME280;47725;47.912;7.356;2023-07-31T20:51:04;98585.36;;;25.84;42.21
61805;BME280;47725;47.912;7.356;2023-07-31T20:55:04;98583.89;;;25.81;42.17
61805;BME280;47725;47.912;7.356;2023-07-31T20:59:04;98584.22;;;25.76;42.19
61805;BME280;47725;47.912;7.356;2023-07-31T21:03:04;98582.59;;;25.69;42.67
61805;BME280;47725;47.912;7.356;2023-07-31T21:07:05;98583.03;;;25.60;43.29
61805;BME280;47725;47.912;7.356;2023-07-31T21:11:04;98580.00;;;25.50;43.66
61805;BME280;47725;47.912;7.356;2023-07-31T21:15:05;98578.30;;;25.39;43.91